Time;durP1;ratioP1;P1;durP2;ratioP2;P2;SDS_P1;SDS_P2;PMS_P1;PMS_P2;Temp;Humidity;BMP_temperature;BMP_pressure;BME280_temperature;BME280_humidity;BME280_pressure;Samples;Min_cycle;Max_cycle;Signal;HPM_P1;HPM_P2
2021/12/30 00:01:35;;;;;;;;;;;9.80;99.90;;;;;;5096970;28;19915;-73
2021/12/30 00:04:01;;;;;;;;;;;9.80;99.90;;;;;;5105707;28;19908;-72
2021/12/30 00:06:26;;;;;;;;;;;9.70;99.90;;;;;;5102842;28;19999;-72
2021/12/30 00:08:53;;;;;;;;;;;9.60;99.90;;;;;;5103686;28;19915;-71
2021/12/30 00:11:18;;;;;;;;;;;9.60;99.90;;;;;;5086815;28;20027;-70
2021/12/30 00:13:45;;;;;;;;;;;9.60;99.90;;;;;;5094101;28;20344;-71
2021/12/30 00:16:14;;;;;;;;;;;9.60;99.90;;;;;;5080443;28;19912;-69
2021/12/30 00:18:39;;;;;;;;;;;9.60;99.90;;;;;;5079530;28;19916;-71
2021/12/30 00:21:05;;;;;;;;;;;9.60;99.90;;;;;;5089064;28;19914;-71
2021/12/30 00:23:31;;;;;;;;;;;9.70;99.90;;;;;;5097979;28;20049;-70
2021/12/30 00:25:56;;;;;;;;;;;9.70;99.90;;;;;;5099084;28;20255;-70
2021/12/30 00:28:22;;;;;;;;;;;9.70;99.90;;;;;;5097092;28;19922;-71
2021/12/30 00:30:48;;;;;;;;;;;9.70;99.90;;;;;;5095741;28;19908;-70
2021/12/30 00:33:14;;;;;;;;;;;9.60;99.90;;;;;;5091283;28;19927;-71
2021/12/30 00:35:40;;;;;;;;;;;9.60;99.90;;;;;;5094414;28;20003;-75
2021/12/30 00:38:05;;;;;;;;;;;9.60;99.90;;;;;;5097545;28;20433;-72
2021/12/30 00:40:32;;;;;;;;;;;9.60;99.90;;;;;;5093677;28;19908;-70
2021/12/30 00:42:59;;;;;;;;;;;9.60;99.90;;;;;;5095097;28;19927;-72
2021/12/30 00:45:26;;;;;;;;;;;9.60;99.90;;;;;;5093145;28;19986;-70
2021/12/30 00:47:51;;;;;;;;;;;9.50;99.90;;;;;;5092608;28;19933;-71
2021/12/30 00:50:18;;;;;;;;;;;9.50;99.90;;;;;;5099027;28;20402;-72
2021/12/30 00:52:44;;;;;;;;;;;9.60;99.90;;;;;;5100523;28;19950;-72
2021/12/30 00:55:10;;;;;;;;;;;9.60;99.90;;;;;;5090939;28;19958;-72
2021/12/30 00:57:35;;;;;;;;;;;9.60;99.90;;;;;;5100106;28;19919;-72
2021/12/30 01:00:01;;;;;;;;;;;9.60;99.90;;;;;;5087239;28;19959;-71
2021/12/30 01:02:27;;;;;;;;;;;9.70;99.90;;;;;;5082788;28;19908;-73
2021/12/30 01:04:52;;;;;;;;;;;9.80;99.90;;;;;;5091214;28;20045;-70
2021/12/30 01:07:18;;;;;;;;;;;9.80;99.90;;;;;;5100979;28;20278;-71
2021/12/30 01:09:43;;;;;;;;;;;9.80;99.90;;;;;;5082507;28;19908;-71
2021/12/30 01:12:09;;;;;;;;;;;9.80;99.90;;;;;;5097657;28;19908;-72
2021/12/30 01:14:36;;;;;;;;;;;9.80;99.90;;;;;;5088579;28;20048;-70
2021/12/30 01:17:14;;;;;;;;;;;9.70;99.90;;;;;;5100157;28;19908;-71
2021/12/30 01:22:05;;;;;;;;;;;9.60;99.90;;;;;;5100551;28;19982;-72
2021/12/30 01:24:31;;;;;;;;;;;9.60;99.90;;;;;;5090287;28;20256;-72
2021/12/30 01:26:57;;;;;;;;;;;9.60;99.90;;;;;;5101125;28;20027;-72
2021/12/30 01:29:24;;;;;;;;;;;9.70;99.90;;;;;;5101353;28;19931;-72
2021/12/30 01:31:50;;;;;;;;;;;9.70;99.90;;;;;;5095604;28;20322;-71
2021/12/30 01:34:15;;;;;;;;;;;9.60;99.90;;;;;;5093171;28;19978;-72
2021/12/30 01:36:41;;;;;;;;;;;9.60;99.90;;;;;;5100705;28;19937;-71
2021/12/30 01:39:06;;;;;;;;;;;9.40;99.90;;;;;;5098844;28;19976;-72
2021/12/30 01:41:32;;;;;;;;;;;9.40;99.90;;;;;;5097829;28;20006;-71
2021/12/30 01:43:57;;;;;;;;;;;9.40;99.90;;;;;;5088542;28;20383;-71
2021/12/30 01:46:23;;;;;;;;;;;9.30;99.90;;;;;;5096870;28;19916;-71
2021/12/30 01:48:48;;;;;;;;;;;9.30;99.90;;;;;;5094381;28;19908;-71
2021/12/30 01:51:14;;;;;;;;;;;9.30;99.90;;;;;;5098980;28;19980;-71
2021/12/30 01:53:40;;;;;;;;;;;9.30;99.90;;;;;;5105594;28;19931;-71
2021/12/30 01:56:06;;;;;;;;;;;9.40;99.90;;;;;;5099474;28;19923;-71
2021/12/30 01:58:32;;;;;;;;;;;9.30;99.90;;;;;;5094561;28;19916;-71
2021/12/30 02:00:57;;;;;;;;;;;9.10;99.90;;;;;;5095192;28;19920;-71
2021/12/30 02:03:23;;;;;;;;;;;9.10;99.90;;;;;;5104598;28;19956;-71
2021/12/30 02:05:49;;;;;;;;;;;9.00;99.90;;;;;;5099255;28;20397;-72
2021/12/30 02:08:16;;;;;;;;;;;8.90;99.90;;;;;;5095709;28;19912;-71
2021/12/30 02:10:43;;;;;;;;;;;8.80;99.90;;;;;;5092504;28;19920;-72
2021/12/30 02:13:09;;;;;;;;;;;8.70;99.90;;;;;;5096314;28;19908;-72
2021/12/30 02:15:35;;;;;;;;;;;8.60;99.90;;;;;;5092748;28;19916;-71
2021/12/30 02:18:02;;;;;;;;;;;8.60;99.90;;;;;;5084482;28;19912;-70
2021/12/30 02:20:46;;;;;;;;;;;8.60;99.90;;;;;;5099837;28;19954;-71
2021/12/30 02:23:19;;;;;;;;;;;8.60;99.90;;;;;;5097845;28;19915;-72
2021/12/30 02:25:45;;;;;;;;;;;8.50;99.90;;;;;;5092182;28;19914;-72
2021/12/30 02:28:12;;;;;;;;;;;8.50;99.90;;;;;;5098336;28;19908;-71
2021/12/30 02:30:38;;;;;;;;;;;8.50;99.90;;;;;;5094648;28;20487;-70
2021/12/30 02:33:04;;;;;;;;;;;8.50;99.90;;;;;;5094941;28;19946;-72
2021/12/30 02:35:30;;;;;;;;;;;8.60;99.90;;;;;;5101243;28;19994;-72
2021/12/30 02:37:56;;;;;;;;;;;8.60;99.90;;;;;;5103989;28;19910;-71
2021/12/30 02:40:23;;;;;;;;;;;8.60;99.90;;;;;;5092301;28;20249;-71
2021/12/30 02:42:48;;;;;;;;;;;8.60;99.90;;;;;;5100542;28;19914;-72
2021/12/30 02:45:14;;;;;;;;;;;8.60;99.90;;;;;;5088510;28;19990;-71
2021/12/30 02:47:39;;;;;;;;;;;8.60;99.90;;;;;;5092441;28;19990;-71
2021/12/30 02:50:05;;;;;;;;;;;8.60;99.90;;;;;;5095279;28;20393;-71
2021/12/30 02:52:30;;;;;;;;;;;8.60;99.90;;;;;;5100026;28;20277;-71
2021/12/30 02:54:56;;;;;;;;;;;8.50;99.90;;;;;;5092539;28;20381;-72
2021/12/30 02:57:25;;;;;;;;;;;8.40;99.90;;;;;;5096150;28;19915;-71
2021/12/30 02:59:50;;;;;;;;;;;8.40;99.90;;;;;;5102672;28;19915;-72
2021/12/30 03:02:16;;;;;;;;;;;8.40;99.90;;;;;;5095322;28;19908;-72
2021/12/30 03:04:41;;;;;;;;;;;8.50;99.90;;;;;;5095880;28;19990;-72
2021/12/30 03:07:07;;;;;;;;;;;8.50;99.90;;;;;;5099250;28;19941;-72
2021/12/30 03:09:32;;;;;;;;;;;8.40;99.90;;;;;;5100830;28;19908;-72
2021/12/30 03:11:58;;;;;;;;;;;8.30;99.90;;;;;;5086797;28;19952;-72
2021/12/30 03:14:25;;;;;;;;;;;8.40;99.90;;;;;;5095082;28;19912;-71
2021/12/30 03:16:51;;;;;;;;;;;8.40;99.90;;;;;;5080910;28;21280;-70
2021/12/30 03:19:16;;;;;;;;;;;8.30;99.90;;;;;;5096236;28;19908;-71
2021/12/30 03:21:42;;;;;;;;;;;8.40;99.90;;;;;;5098089;28;19931;-71
2021/12/30 03:24:08;;;;;;;;;;;8.30;99.90;;;;;;5106402;28;19930;-71
2021/12/30 03:26:35;;;;;;;;;;;8.30;99.90;;;;;;5096389;28;20590;-71
2021/12/30 03:29:01;;;;;;;;;;;8.30;99.90;;;;;;5097573;28;19908;-71
2021/12/30 03:31:27;;;;;;;;;;;8.30;99.90;;;;;;5097823;28;19907;-71
2021/12/30 03:33:52;;;;;;;;;;;8.30;99.90;;;;;;5096418;28;20230;-71
2021/12/30 03:36:18;;;;;;;;;;;8.20;99.90;;;;;;5096078;28;19955;-71
2021/12/30 03:38:46;;;;;;;;;;;8.10;99.90;;;;;;5091363;28;19927;-71
2021/12/30 03:41:12;;;;;;;;;;;8.10;99.90;;;;;;5111611;27;19915;-70
2021/12/30 03:43:38;;;;;;;;;;;8.00;99.90;;;;;;5096278;28;20376;-71
2021/12/30 03:46:04;;;;;;;;;;;8.00;99.90;;;;;;5087465;28;20354;-72
2021/12/30 03:48:34;;;;;;;;;;;8.00;99.90;;;;;;5094662;28;20011;-71
2021/12/30 03:51:04;;;;;;;;;;;7.90;99.90;;;;;;5101974;28;19980;-71
2021/12/30 03:53:30;;;;;;;;;;;7.90;99.90;;;;;;5097991;28;20219;-71
2021/12/30 03:55:55;;;;;;;;;;;7.90;99.90;;;;;;5099069;28;20022;-70
2021/12/30 03:58:21;;;;;;;;;;;8.00;99.90;;;;;;5095060;28;19986;-71
2021/12/30 04:00:47;;;;;;;;;;;7.90;99.90;;;;;;5096070;28;19912;-71
2021/12/30 04:03:12;;;;;;;;;;;7.80;99.90;;;;;;5098760;28;19979;-72
2021/12/30 04:05:38;;;;;;;;;;;7.80;99.90;;;;;;5099728;28;19908;-72
2021/12/30 04:08:03;;;;;;;;;;;7.70;99.90;;;;;;5103477;28;19911;-71
2021/12/30 04:10:29;;;;;;;;;;;7.70;99.90;;;;;;5097975;28;19913;-70
2021/12/30 04:12:56;;;;;;;;;;;7.70;99.90;;;;;;5087868;28;19946;-71
2021/12/30 04:15:22;;;;;;;;;;;7.60;99.90;;;;;;5090968;28;19915;-71
2021/12/30 04:17:47;;;;;;;;;;;7.60;99.90;;;;;;5099440;28;19908;-71
2021/12/30 04:20:14;;;;;;;;;;;7.60;99.90;;;;;;5098062;28;19918;-70
2021/12/30 04:22:40;;;;;;;;;;;7.50;99.90;;;;;;5094008;28;19956;-72
2021/12/30 04:25:07;;;;;;;;;;;7.40;99.90;;;;;;5094960;28;19907;-71
2021/12/30 04:27:33;;;;;;;;;;;7.40;99.90;;;;;;5100827;28;20366;-71
2021/12/30 04:29:59;;;;;;;;;;;7.40;99.90;;;;;;5091540;28;20338;-71
2021/12/30 04:32:24;;;;;;;;;;;7.30;99.90;;;;;;5100342;28;19912;-71
2021/12/30 04:34:50;;;;;;;;;;;7.30;99.90;;;;;;5096331;28;19912;-71
2021/12/30 04:37:16;;;;;;;;;;;7.30;99.90;;;;;;5093888;28;19927;-72
2021/12/30 04:39:41;;;;;;;;;;;7.20;99.90;;;;;;5087856;28;19908;-72
2021/12/30 04:42:07;;;;;;;;;;;7.20;99.90;;;;;;5102453;28;19968;-70
2021/12/30 04:44:33;;;;;;;;;;;7.10;99.90;;;;;;5091606;28;20348;-71
2021/12/30 04:46:58;;;;;;;;;;;7.10;99.90;;;;;;5097666;28;19960;-71
2021/12/30 04:49:25;;;;;;;;;;;7.10;99.90;;;;;;5101026;28;20365;-71
2021/12/30 04:51:51;;;;;;;;;;;7.00;99.90;;;;;;5093346;28;19915;-70
2021/12/30 04:54:17;;;;;;;;;;;7.00;99.90;;;;;;5099906;28;19912;-71
2021/12/30 04:56:43;;;;;;;;;;;7.00;99.90;;;;;;5099784;28;19908;-71
2021/12/30 04:59:08;;;;;;;;;;;6.90;99.90;;;;;;5092961;28;19941;-71
2021/12/30 05:01:34;;;;;;;;;;;6.90;99.90;;;;;;5092447;28;20397;-71
2021/12/30 05:03:59;;;;;;;;;;;6.90;99.90;;;;;;5093428;28;19918;-71
2021/12/30 05:06:25;;;;;;;;;;;6.90;99.90;;;;;;5098471;28;19908;-71
2021/12/30 05:08:51;;;;;;;;;;;6.90;99.90;;;;;;5093797;28;20320;-71
2021/12/30 05:11:16;;;;;;;;;;;6.90;99.90;;;;;;5091365;28;19959;-71
2021/12/30 05:13:42;;;;;;;;;;;6.90;99.90;;;;;;5089592;28;20436;-71
2021/12/30 05:16:07;;;;;;;;;;;6.90;99.90;;;;;;5105920;28;20464;-73
2021/12/30 05:18:34;;;;;;;;;;;6.90;99.90;;;;;;5098144;28;19961;-71
2021/12/30 05:21:00;;;;;;;;;;;7.00;99.90;;;;;;5102783;28;19911;-71
2021/12/30 05:23:27;;;;;;;;;;;7.10;99.90;;;;;;5093837;28;19914;-70
2021/12/30 05:25:53;;;;;;;;;;;7.10;99.90;;;;;;5100061;28;20274;-71
2021/12/30 05:28:18;;;;;;;;;;;7.10;99.90;;;;;;5099914;28;19916;-71
2021/12/30 05:30:44;;;;;;;;;;;7.00;99.90;;;;;;5091819;28;20423;-69
2021/12/30 05:33:09;;;;;;;;;;;6.90;99.90;;;;;;5093482;28;20313;-70
2021/12/30 05:35:35;;;;;;;;;;;6.90;99.90;;;;;;5093004;28;20282;-70
2021/12/30 05:38:02;;;;;;;;;;;7.00;99.90;;;;;;5101016;28;19926;-70
2021/12/30 05:40:28;;;;;;;;;;;7.10;99.90;;;;;;5086932;28;19915;-71
2021/12/30 05:42:53;;;;;;;;;;;6.90;99.90;;;;;;5097769;28;19916;-71
2021/12/30 05:45:19;;;;;;;;;;;6.80;99.90;;;;;;5096612;28;19908;-71
2021/12/30 05:47:46;;;;;;;;;;;6.80;99.90;;;;;;5094164;28;20443;-72
2021/12/30 05:50:12;;;;;;;;;;;6.80;99.90;;;;;;5101815;28;20396;-71
2021/12/30 05:52:38;;;;;;;;;;;6.70;99.90;;;;;;5097772;28;19942;-69
2021/12/30 05:55:05;;;;;;;;;;;6.70;99.90;;;;;;5102728;28;20349;-70
2021/12/30 05:57:30;;;;;;;;;;;6.70;99.90;;;;;;5101276;28;19904;-71
2021/12/30 05:59:56;;;;;;;;;;;6.80;99.90;;;;;;5095803;28;19912;-71
2021/12/30 06:02:21;;;;;;;;;;;6.80;99.90;;;;;;5091916;28;19938;-71
2021/12/30 06:04:47;;;;;;;;;;;6.70;99.90;;;;;;5096554;28;20045;-71
2021/12/30 06:07:14;;;;;;;;;;;6.70;99.90;;;;;;5099664;28;19927;-71
2021/12/30 06:09:41;;;;;;;;;;;6.80;99.90;;;;;;5081990;28;19908;-72
2021/12/30 06:12:06;;;;;;;;;;;6.70;99.90;;;;;;5095098;28;20047;-71
2021/12/30 06:14:32;;;;;;;;;;;6.70;99.90;;;;;;5095116;28;20045;-71
2021/12/30 06:16:58;;;;;;;;;;;6.80;99.90;;;;;;5096565;28;19916;-71
2021/12/30 06:19:23;;;;;;;;;;;6.90;99.90;;;;;;5083541;28;19915;-71
2021/12/30 06:21:49;;;;;;;;;;;7.00;99.90;;;;;;5103439;28;20350;-72
2021/12/30 06:24:14;;;;;;;;;;;6.90;99.90;;;;;;5104923;28;19963;-71
2021/12/30 06:26:40;;;;;;;;;;;7.00;99.90;;;;;;5098713;28;20516;-72
2021/12/30 06:29:06;;;;;;;;;;;7.10;99.90;;;;;;5098263;28;20590;-71
2021/12/30 06:31:31;;;;;;;;;;;7.10;99.90;;;;;;5104208;28;19908;-72
2021/12/30 06:33:57;;;;;;;;;;;7.10;99.90;;;;;;5091133;28;20060;-72
2021/12/30 06:36:22;;;;;;;;;;;7.20;99.90;;;;;;5091195;28;19934;-70
2021/12/30 06:38:49;;;;;;;;;;;7.20;99.90;;;;;;5097574;28;19913;-70
2021/12/30 06:41:14;;;;;;;;;;;7.30;99.90;;;;;;5099355;28;19924;-71
2021/12/30 06:43:41;;;;;;;;;;;7.20;99.90;;;;;;5094922;28;19908;-71
2021/12/30 06:46:09;;;;;;;;;;;7.30;99.90;;;;;;5104187;28;19918;-71
2021/12/30 06:48:34;;;;;;;;;;;7.40;99.90;;;;;;5095127;28;19914;-72
2021/12/30 06:51:00;;;;;;;;;;;7.50;99.90;;;;;;5092794;28;20002;-72
2021/12/30 06:53:26;;;;;;;;;;;7.40;99.90;;;;;;5093815;28;19914;-72
2021/12/30 06:55:52;;;;;;;;;;;7.30;99.90;;;;;;5098844;28;19999;-71
2021/12/30 06:58:18;;;;;;;;;;;7.20;99.90;;;;;;5102319;28;19966;-71
2021/12/30 07:00:46;;;;;;;;;;;7.10;99.90;;;;;;5094362;28;20002;-72
2021/12/30 07:03:12;;;;;;;;;;;7.00;99.90;;;;;;5097383;28;20339;-73
2021/12/30 07:05:38;;;;;;;;;;;7.00;99.90;;;;;;5099213;28;19908;-72
2021/12/30 07:08:03;;;;;;;;;;;7.00;99.90;;;;;;5090065;28;19907;-72
2021/12/30 07:10:29;;;;;;;;;;;7.10;99.90;;;;;;5089743;28;19917;-71
2021/12/30 07:12:54;;;;;;;;;;;7.00;99.90;;;;;;5091443;28;19914;-72
2021/12/30 07:15:20;;;;;;;;;;;7.10;99.90;;;;;;5101295;28;19920;-70
2021/12/30 07:17:46;;;;;;;;;;;7.00;99.90;;;;;;5091677;28;19913;-70
2021/12/30 07:20:12;;;;;;;;;;;7.00;99.90;;;;;;5089032;28;19919;-72
2021/12/30 07:22:37;;;;;;;;;;;6.90;99.90;;;;;;5096338;28;19952;-71
2021/12/30 07:25:03;;;;;;;;;;;7.10;99.90;;;;;;5103880;28;19915;-71
2021/12/30 07:27:29;;;;;;;;;;;7.10;99.90;;;;;;5096048;28;20003;-71
2021/12/30 07:29:56;;;;;;;;;;;7.10;99.90;;;;;;5092041;28;20377;-70
2021/12/30 07:32:22;;;;;;;;;;;7.10;99.90;;;;;;5088052;28;19916;-70
2021/12/30 07:34:47;;;;;;;;;;;7.10;99.90;;;;;;5090243;28;19916;-71
2021/12/30 07:37:14;;;;;;;;;;;7.20;99.90;;;;;;5091164;28;19911;-69
2021/12/30 07:39:44;;;;;;;;;;;7.10;99.90;;;;;;5089711;28;20007;-71
2021/12/30 07:42:09;;;;;;;;;;;7.10;99.90;;;;;;5090651;28;20235;-69
2021/12/30 07:44:35;;;;;;;;;;;7.10;99.90;;;;;;5084918;28;19916;-70
2021/12/30 07:47:01;;;;;;;;;;;7.10;99.90;;;;;;5070907;28;19908;-70
2021/12/30 07:49:26;;;;;;;;;;;7.10;99.90;;;;;;5070932;28;19904;-71
2021/12/30 07:51:52;;;;;;;;;;;7.10;99.90;;;;;;5098524;28;20345;-71
2021/12/30 07:54:17;;;;;;;;;;;7.10;99.90;;;;;;5082173;28;19908;-71
2021/12/30 07:56:43;;;;;;;;;;;7.00;99.90;;;;;;5081630;28;20277;-71
2021/12/30 07:59:09;;;;;;;;;;;7.10;99.90;;;;;;5083200;28;20381;-73
2021/12/30 08:01:34;;;;;;;;;;;7.10;99.90;;;;;;5083918;28;19990;-72
2021/12/30 08:04:00;;;;;;;;;;;7.20;99.90;;;;;;5082787;28;19915;-70
2021/12/30 08:06:28;;;;;;;;;;;7.10;99.90;;;;;;5104338;28;19943;-71
2021/12/30 08:08:55;;;;;;;;;;;7.20;99.90;;;;;;5092704;28;19937;-71
2021/12/30 08:11:20;;;;;;;;;;;7.50;99.90;;;;;;5091367;28;20279;-71
2021/12/30 08:13:46;;;;;;;;;;;7.70;99.90;;;;;;5091453;28;19996;-75
2021/12/30 08:16:13;;;;;;;;;;;8.00;99.90;;;;;;5099797;28;20365;-71
2021/12/30 08:18:42;;;;;;;;;;;8.20;99.90;;;;;;5075066;28;19965;-73
2021/12/30 08:21:08;;;;;;;;;;;8.20;99.90;;;;;;5071159;28;20412;-71
2021/12/30 08:23:35;;;;;;;;;;;8.20;99.90;;;;;;5070941;28;20298;-72
2021/12/30 08:26:04;;;;;;;;;;;8.20;99.90;;;;;;5072116;28;19996;-71
2021/12/30 08:28:30;;;;;;;;;;;8.40;99.90;;;;;;5087701;28;19919;-72
2021/12/30 08:30:56;;;;;;;;;;;8.50;99.90;;;;;;5086312;28;20381;-71
2021/12/30 08:33:21;;;;;;;;;;;8.80;99.90;;;;;;5091225;28;19986;-72
2021/12/30 08:35:47;;;;;;;;;;;8.90;99.90;;;;;;5089495;28;19911;-72
2021/12/30 08:38:13;;;;;;;;;;;9.00;99.90;;;;;;5084327;28;19908;-72
2021/12/30 08:40:39;;;;;;;;;;;9.10;99.90;;;;;;5075568;28;19908;-71
2021/12/30 08:43:06;;;;;;;;;;;9.20;99.90;;;;;;5070056;28;19904;-71
2021/12/30 08:45:33;;;;;;;;;;;9.30;99.90;;;;;;5077825;28;19908;-72
2021/12/30 08:47:59;;;;;;;;;;;9.30;99.90;;;;;;5073956;28;20095;-71
2021/12/30 08:50:24;;;;;;;;;;;9.30;99.90;;;;;;5073977;28;20003;-71
2021/12/30 08:52:50;;;;;;;;;;;9.30;99.90;;;;;;5077103;28;19916;-72
2021/12/30 08:55:17;;;;;;;;;;;9.30;99.90;;;;;;5077026;28;19912;-72
2021/12/30 08:57:43;;;;;;;;;;;9.30;99.90;;;;;;5070996;28;19926;-73
2021/12/30 09:00:12;;;;;;;;;;;9.40;99.90;;;;;;5080386;28;19912;-72
2021/12/30 09:02:37;;;;;;;;;;;9.50;99.90;;;;;;5093918;28;19957;-71
2021/12/30 09:05:03;;;;;;;;;;;9.40;99.90;;;;;;5090880;28;19951;-71
2021/12/30 09:07:29;;;;;;;;;;;9.50;99.90;;;;;;5081135;28;19908;-71
2021/12/30 09:09:54;;;;;;;;;;;9.60;99.90;;;;;;5094327;28;20349;-72
2021/12/30 09:12:21;;;;;;;;;;;9.70;99.90;;;;;;5104432;22;19907;-70
2021/12/30 09:14:47;;;;;;;;;;;9.80;99.90;;;;;;5027568;28;19967;-71
2021/12/30 09:17:12;;;;;;;;;;;9.90;99.90;;;;;;5011247;28;19985;-71
2021/12/30 09:19:38;;;;;;;;;;;10.00;99.90;;;;;;5010165;28;19909;-71
2021/12/30 09:22:03;;;;;;;;;;;10.10;99.90;;;;;;5030373;28;19999;-72
2021/12/30 09:24:29;;;;;;;;;;;10.00;99.90;;;;;;5028102;28;19909;-72
2021/12/30 09:26:55;;;;;;;;;;;10.00;99.90;;;;;;5022406;28;19912;-72
2021/12/30 09:29:20;;;;;;;;;;;9.80;99.90;;;;;;5013701;28;19994;-72
2021/12/30 09:31:47;;;;;;;;;;;9.80;99.90;;;;;;5013836;28;20389;-72
2021/12/30 09:34:13;;;;;;;;;;;9.80;99.90;;;;;;5012496;28;19909;-72
2021/12/30 09:36:39;;;;;;;;;;;9.80;99.90;;;;;;5003855;28;20312;-72
2021/12/30 09:39:07;;;;;;;;;;;9.80;99.90;;;;;;5009781;28;19909;-72
2021/12/30 09:41:37;;;;;;;;;;;9.80;99.90;;;;;;5011272;28;20385;-71
2021/12/30 09:44:04;;;;;;;;;;;9.80;99.90;;;;;;5014102;28;19915;-70
2021/12/30 09:46:30;;;;;;;;;;;9.70;99.90;;;;;;5011247;28;19906;-73
2021/12/30 09:48:55;;;;;;;;;;;9.70;99.90;;;;;;5012430;28;19924;-70
2021/12/30 09:51:21;;;;;;;;;;;9.80;99.90;;;;;;5014350;28;19909;-72
2021/12/30 09:53:53;;;;;;;;;;;10.00;99.90;;;;;;5010996;28;19936;-73
2021/12/30 09:56:19;;;;;;;;;;;10.00;99.90;;;;;;5013240;28;20370;-73
2021/12/30 09:58:45;;;;;;;;;;;10.20;99.90;;;;;;5014484;28;20331;-73
2021/12/30 10:01:10;;;;;;;;;;;10.20;99.90;;;;;;5012891;28;19952;-72
2021/12/30 10:03:36;;;;;;;;;;;10.50;99.90;;;;;;5013899;28;19963;-72
2021/12/30 10:06:06;;;;;;;;;;;10.60;99.90;;;;;;5013702;28;19925;-73
2021/12/30 10:08:36;;;;;;;;;;;10.70;99.90;;;;;;5011638;28;19909;-72
2021/12/30 10:11:05;;;;;;;;;;;11.00;99.90;;;;;;5013515;28;19916;-72
2021/12/30 10:13:31;;;;;;;;;;;11.00;99.90;;;;;;5013358;28;19917;-72
2021/12/30 10:15:58;;;;;;;;;;;11.00;99.90;;;;;;5011584;28;19917;-73
2021/12/30 10:18:25;;;;;;;;;;;11.00;99.90;;;;;;5009941;28;20357;-72
2021/12/30 10:20:51;;;;;;;;;;;11.10;99.90;;;;;;5011651;28;19916;-72
2021/12/30 10:23:18;;;;;;;;;;;11.00;99.90;;;;;;5013717;28;20238;-71
2021/12/30 10:25:45;;;;;;;;;;;11.00;99.90;;;;;;5014640;28;19913;-66
2021/12/30 10:28:16;;;;;;;;;;;11.00;99.90;;;;;;5016520;28;19909;-71
2021/12/30 10:30:42;;;;;;;;;;;10.90;99.90;;;;;;5015951;28;20004;-70
2021/12/30 10:33:40;;;;;;;;;;;10.80;99.90;;;;;;5017201;28;19953;-69
2021/12/30 10:36:13;;;;;;;;;;;10.90;99.90;;;;;;5004076;28;19920;-68
2021/12/30 10:38:39;;;;;;;;;;;10.80;99.90;;;;;;5014191;28;19910;-70
2021/12/30 10:41:05;;;;;;;;;;;10.90;99.90;;;;;;5006027;28;19909;-70
2021/12/30 10:46:03;;;;;;;;;;;10.80;99.90;;;;;;5012898;28;20333;-68
2021/12/30 10:48:29;;;;;;;;;;;10.70;99.90;;;;;;5013996;28;20353;-70
2021/12/30 10:51:11;;;;;;;;;;;10.60;99.90;;;;;;5013838;28;19906;-69
2021/12/30 10:53:37;;;;;;;;;;;10.70;99.90;;;;;;5013215;28;19938;-68
2021/12/30 10:56:21;;;;;;;;;;;10.80;99.90;;;;;;5012590;28;20136;-68
2021/12/30 10:58:47;;;;;;;;;;;10.90;99.90;;;;;;5012624;28;19992;-68
2021/12/30 11:01:21;;;;;;;;;;;10.90;99.90;;;;;;5010048;28;19940;-69
2021/12/30 11:03:55;;;;;;;;;;;10.90;99.90;;;;;;5012093;28;19999;-68
2021/12/30 11:06:21;;;;;;;;;;;10.90;99.90;;;;;;5012364;28;19912;-69
2021/12/30 11:08:49;;;;;;;;;;;10.90;99.90;;;;;;5011649;28;19909;-70
2021/12/30 11:11:41;;;;;;;;;;;10.90;99.90;;;;;;5011842;28;19941;-70
2021/12/30 11:14:07;;;;;;;;;;;10.90;99.90;;;;;;5008051;28;19917;-70
2021/12/30 11:16:52;;;;;;;;;;;10.90;99.90;;;;;;5005080;28;20277;-68
2021/12/30 11:19:18;;;;;;;;;;;10.90;99.90;;;;;;5011924;28;19916;-70
2021/12/30 11:21:44;;;;;;;;;;;11.00;99.90;;;;;;5010744;28;19921;-69
2021/12/30 11:24:10;;;;;;;;;;;11.10;99.90;;;;;;5012201;28;20409;-67
2021/12/30 11:26:36;;;;;;;;;;;11.40;99.90;;;;;;4996201;28;20020;-67
2021/12/30 11:29:03;;;;;;;;;;;11.50;99.90;;;;;;5005475;28;19909;-68
2021/12/30 11:31:30;;;;;;;;;;;11.40;99.90;;;;;;5012549;28;20394;-66
2021/12/30 11:33:56;;;;;;;;;;;11.60;99.90;;;;;;5014039;28;19962;-68
2021/12/30 11:36:21;;;;;;;;;;;11.70;99.90;;;;;;5008386;28;20016;-67
2021/12/30 11:38:47;;;;;;;;;;;11.70;99.90;;;;;;5011886;28;19963;-67
2021/12/30 11:41:17;;;;;;;;;;;11.80;99.90;;;;;;5012317;28;20351;-68
2021/12/30 11:43:43;;;;;;;;;;;11.70;99.90;;;;;;5011575;28;19985;-67
2021/12/30 11:46:27;;;;;;;;;;;11.60;99.90;;;;;;5010946;28;19909;-68
2021/12/30 11:48:54;;;;;;;;;;;11.60;99.90;;;;;;5011966;28;20048;-68
2021/12/30 11:51:22;;;;;;;;;;;11.60;99.90;;;;;;5009956;28;19909;-67
2021/12/30 11:53:50;;;;;;;;;;;11.80;99.90;;;;;;5000537;28;19945;-67
2021/12/30 11:56:17;;;;;;;;;;;11.90;99.90;;;;;;5000795;28;19917;-67
2021/12/30 11:58:51;;;;;;;;;;;12.00;99.90;;;;;;5011835;28;19990;-68
2021/12/30 12:01:21;;;;;;;;;;;12.00;99.90;;;;;;5011523;28;19936;-67
2021/12/30 12:03:48;;;;;;;;;;;12.00;99.90;;;;;;5011806;28;19960;-67
2021/12/30 12:08:51;;;;;;;;;;;11.80;99.90;;;;;;5010811;28;19925;-67
2021/12/30 12:11:17;;;;;;;;;;;11.70;99.90;;;;;;5011531;28;19910;-68
2021/12/30 12:13:44;;;;;;;;;;;11.70;99.90;;;;;;5010928;28;19960;-69
2021/12/30 12:16:10;;;;;;;;;;;11.90;99.90;;;;;;5011585;28;20494;-70
2021/12/30 12:18:36;;;;;;;;;;;12.00;99.90;;;;;;5010743;28;19909;-69
2021/12/30 12:21:04;;;;;;;;;;;12.10;99.90;;;;;;5011799;28;19927;-69
2021/12/30 12:23:30;;;;;;;;;;;12.20;99.90;;;;;;5011553;28;19982;-65
2021/12/30 12:26:08;;;;;;;;;;;12.20;99.90;;;;;;5011548;28;20286;-67
2021/12/30 12:28:33;;;;;;;;;;;12.10;99.90;;;;;;5011436;28;20020;-67
2021/12/30 12:30:59;;;;;;;;;;;12.20;99.90;;;;;;5011813;28;20347;-65
2021/12/30 12:33:26;;;;;;;;;;;12.20;99.90;;;;;;5011131;28;19906;-66
2021/12/30 12:35:52;;;;;;;;;;;12.00;99.90;;;;;;5012377;28;19963;-69
2021/12/30 12:38:35;;;;;;;;;;;11.90;99.90;;;;;;5012907;28;20196;-68
2021/12/30 12:41:14;;;;;;;;;;;11.90;99.90;;;;;;5012038;28;20323;-68
2021/12/30 12:43:39;;;;;;;;;;;11.80;99.90;;;;;;5011526;28;20000;-68
2021/12/30 12:46:05;;;;;;;;;;;11.70;99.90;;;;;;5010929;28;19984;-67
2021/12/30 12:48:32;;;;;;;;;;;11.70;99.90;;;;;;5011160;28;20343;-68
2021/12/30 12:51:00;;;;;;;;;;;11.70;99.90;;;;;;5010805;28;19909;-67
2021/12/30 12:53:28;;;;;;;;;;;11.60;99.90;;;;;;5011059;28;19905;-67
2021/12/30 12:56:03;;;;;;;;;;;11.60;99.90;;;;;;5009554;28;19917;-68
2021/12/30 12:58:30;;;;;;;;;;;11.60;99.90;;;;;;5011730;28;19906;-67
2021/12/30 13:00:57;;;;;;;;;;;11.60;99.90;;;;;;5015365;28;20067;-68
2021/12/30 13:03:23;;;;;;;;;;;11.60;99.90;;;;;;5016605;28;20383;-66
2021/12/30 13:05:56;;;;;;;;;;;11.60;99.90;;;;;;5016630;28;19916;-67
2021/12/30 13:08:23;;;;;;;;;;;11.60;99.90;;;;;;5016286;28;20004;-68
2021/12/30 13:10:48;;;;;;;;;;;11.60;99.90;;;;;;5014126;28;20462;-68
2021/12/30 13:13:29;;;;;;;;;;;11.70;99.90;;;;;;5013520;28;19936;-66
2021/12/30 13:15:56;;;;;;;;;;;11.60;99.90;;;;;;5012899;28;19913;-65
2021/12/30 13:18:22;;;;;;;;;;;11.60;99.90;;;;;;5014352;28;20017;-69
2021/12/30 13:20:48;;;;;;;;;;;11.70;99.90;;;;;;5014674;28;20120;-66
2021/12/30 13:23:30;;;;;;;;;;;11.60;99.90;;;;;;5015225;28;19912;-66
2021/12/30 13:25:59;;;;;;;;;;;11.60;99.90;;;;;;5014843;28;19913;-68
2021/12/30 13:28:24;;;;;;;;;;;11.50;99.90;;;;;;5015165;28;19909;-67
2021/12/30 13:30:51;;;;;;;;;;;11.40;99.90;;;;;;5014143;28;20358;-67
2021/12/30 13:33:16;;;;;;;;;;;11.20;99.90;;;;;;5019870;28;19914;-68
2021/12/30 13:35:42;;;;;;;;;;;11.20;99.90;;;;;;5018935;28;19941;-67
2021/12/30 13:38:09;;;;;;;;;;;11.20;99.90;;;;;;5018615;28;19912;-67
2021/12/30 13:40:37;;;;;;;;;;;11.20;99.90;;;;;;5017910;28;19933;-66
2021/12/30 13:43:08;;;;;;;;;;;11.00;99.90;;;;;;5022132;28;19913;-67
2021/12/30 13:45:36;;;;;;;;;;;10.90;99.90;;;;;;5019301;28;19941;-67
2021/12/30 13:48:04;;;;;;;;;;;10.80;99.90;;;;;;5020147;28;19918;-66
2021/12/30 13:50:31;;;;;;;;;;;10.90;99.90;;;;;;5020492;28;19912;-66
2021/12/30 13:52:57;;;;;;;;;;;10.90;99.90;;;;;;5019143;28;19909;-66
2021/12/30 13:55:37;;;;;;;;;;;10.90;99.90;;;;;;5018423;28;19920;-67
2021/12/30 13:58:04;;;;;;;;;;;10.90;99.90;;;;;;5019180;28;19983;-66
2021/12/30 14:00:33;;;;;;;;;;;10.90;99.90;;;;;;5019003;28;19933;-66
2021/12/30 14:03:09;;;;;;;;;;;11.00;99.90;;;;;;5018426;28;19999;-67
2021/12/30 14:05:34;;;;;;;;;;;11.10;99.90;;;;;;5017176;28;19985;-67
2021/12/30 14:08:07;;;;;;;;;;;11.20;99.90;;;;;;5016885;28;20358;-67
2021/12/30 14:10:50;;;;;;;;;;;11.20;99.90;;;;;;5016146;28;19952;-66
2021/12/30 14:13:16;;;;;;;;;;;11.10;99.90;;;;;;5017509;28;19921;-67
2021/12/30 14:15:42;;;;;;;;;;;11.00;99.90;;;;;;5017141;28;19924;-67
2021/12/30 14:18:09;;;;;;;;;;;10.90;99.90;;;;;;5016479;28;19910;-67
2021/12/30 14:20:35;;;;;;;;;;;10.80;99.90;;;;;;5018845;28;19910;-67
2021/12/30 14:23:01;;;;;;;;;;;10.70;99.90;;;;;;5017324;28;19914;-67
2021/12/30 14:25:36;;;;;;;;;;;10.60;99.90;;;;;;5016590;28;19917;-66
2021/12/30 14:28:16;;;;;;;;;;;10.60;99.90;;;;;;5016932;28;20003;-66
2021/12/30 14:30:42;;;;;;;;;;;10.60;99.90;;;;;;5016630;28;19937;-67
2021/12/30 14:33:14;;;;;;;;;;;10.60;99.90;;;;;;5016023;28;19928;-66